createdAt,value
2019-01-15T00:04:40.858Z,2.37
2019-01-15T00:09:47.318Z,1.87
2019-01-15T00:14:53.694Z,2.33
2019-01-15T00:25:06.281Z,1.80
2019-01-15T00:30:12.765Z,1.40
2019-01-15T00:35:19.319Z,1.73
2019-01-15T00:40:25.601Z,2.03
2019-01-15T00:45:32.012Z,0.60
2019-01-15T00:50:38.458Z,1.43
2019-01-15T00:55:44.737Z,2.03
2019-01-15T01:00:51.281Z,2.00
2019-01-15T01:05:57.803Z,2.67
2019-01-15T01:11:04.285Z,1.50
2019-01-15T01:16:10.669Z,1.98
2019-01-15T01:26:22.817Z,2.47
2019-01-15T01:31:29.308Z,1.80
2019-01-15T01:36:35.675Z,1.87
2019-01-15T01:41:42.059Z,1.40
2019-01-15T01:46:47.994Z,1.52
2019-01-15T01:51:54.613Z,1.60
2019-01-15T01:57:01.022Z,1.77
2019-01-15T02:02:07.786Z,1.90
2019-01-15T02:07:14.292Z,2.20
2019-01-15T02:12:20.645Z,2.20
2019-01-15T02:22:33.308Z,2.10
2019-01-15T02:27:41.326Z,2.70
2019-01-15T02:32:47.706Z,2.30
2019-01-15T02:37:54.016Z,2.30
2019-01-15T02:43:00.471Z,1.60
2019-01-15T02:48:06.740Z,1.70
2019-01-15T02:53:13.050Z,2.70
2019-01-15T02:58:19.019Z,1.53
2019-01-15T03:03:25.484Z,3.30
2019-01-15T03:08:31.752Z,2.33
2019-01-15T03:13:38.293Z,1.85
2019-01-15T03:18:44.614Z,2.33
2019-01-15T03:28:56.939Z,2.90
2019-01-15T03:39:09.726Z,3.60
2019-01-15T03:44:16.292Z,3.50
2019-01-15T03:49:22.693Z,2.52
2019-01-15T03:54:29.075Z,1.70
2019-01-15T03:59:35.557Z,2.53
2019-01-15T04:04:42.552Z,2.37
2019-01-15T04:09:49.646Z,2.30
2019-01-15T04:14:56.051Z,1.52
2019-01-15T04:20:02.511Z,1.43
2019-01-15T04:25:08.794Z,2.07
2019-01-15T04:30:15.294Z,2.12
2019-01-15T04:35:21.765Z,1.97
2019-01-15T04:40:28.054Z,2.30
2019-01-15T04:45:34.183Z,1.30
2019-01-15T04:50:39.999Z,1.45
2019-01-15T04:55:46.943Z,2.80
2019-01-15T05:06:00.349Z,2.90
2019-01-15T05:11:06.626Z,2.83
2019-01-15T05:16:12.994Z,3.10
2019-01-15T05:21:19.695Z,3.47
2019-01-15T05:31:32.354Z,2.70
2019-01-15T05:36:38.627Z,2.52
2019-01-15T05:41:45.037Z,1.60
2019-01-15T05:46:51.489Z,3.20
2019-01-15T05:51:57.954Z,2.80
2019-01-15T05:57:04.995Z,1.80
2019-01-15T06:02:11.659Z,2.90
2019-01-15T06:07:18.059Z,2.30
2019-01-15T06:12:24.518Z,1.60
2019-01-15T06:17:30.794Z,1.50
2019-01-15T06:22:37.295Z,2.00
2019-01-15T06:27:43.771Z,2.27
2019-01-15T06:32:50.296Z,2.63
2019-01-15T06:37:56.625Z,1.47
2019-01-15T06:48:10.027Z,1.67
2019-01-15T06:53:16.483Z,2.57
2019-01-15T06:58:22.940Z,1.83
2019-01-15T07:03:28.833Z,1.20
2019-01-15T07:08:35.316Z,2.47
2019-01-15T07:13:41.717Z,2.17
2019-01-15T07:18:48.000Z,2.00
2019-01-15T07:23:54.659Z,1.50
2019-01-15T07:34:06.989Z,1.85
2019-01-15T07:39:13.495Z,2.13
2019-01-15T07:44:19.775Z,2.27
2019-01-15T07:49:26.289Z,2.00
2019-01-15T07:54:32.635Z,2.20
2019-01-15T08:04:45.021Z,1.65
2019-01-15T08:09:51.438Z,1.40
2019-01-15T08:14:57.751Z,1.63
2019-01-15T08:20:04.282Z,2.03
2019-01-15T08:25:10.613Z,5.70
2019-01-15T08:30:16.972Z,3.45
2019-01-15T08:35:23.574Z,2.90
2019-01-15T08:40:29.935Z,6.50
2019-01-15T08:50:42.513Z,2.00
2019-01-15T08:55:50.430Z,1.57
2019-01-15T09:06:02.633Z,2.37
2019-01-15T09:11:08.988Z,2.45
2019-01-15T09:16:15.543Z,1.93
2019-01-15T09:21:21.822Z,1.67
2019-01-15T09:26:28.306Z,1.83
2019-01-15T09:31:34.679Z,1.73
2019-01-15T09:36:41.278Z,1.27
2019-01-15T09:41:47.760Z,1.77
2019-01-15T09:46:54.282Z,1.10
2019-01-15T09:52:00.718Z,2.13
2019-01-15T09:57:07.278Z,2.90
2019-01-15T10:02:13.679Z,2.10
2019-01-15T10:07:20.276Z,1.57
2019-01-15T10:12:26.749Z,2.10
2019-01-15T10:22:39.027Z,1.90
2019-01-15T10:27:45.682Z,3.20
2019-01-15T10:32:52.075Z,3.12
2019-01-15T10:37:58.564Z,1.83
2019-01-15T10:43:04.850Z,2.67
2019-01-15T10:48:11.309Z,2.40
2019-01-15T10:53:17.689Z,2.43
2019-01-15T10:58:24.068Z,2.50
2019-01-15T11:03:30.553Z,2.10
2019-01-15T11:08:36.829Z,2.60
2019-01-15T11:13:43.322Z,3.87
2019-01-15T11:18:49.702Z,2.87
2019-01-15T11:23:56.280Z,4.07
2019-01-15T11:29:02.666Z,3.50
2019-01-15T11:34:09.278Z,3.03
2019-01-15T11:39:15.571Z,3.97
2019-01-15T11:44:22.276Z,2.55
2019-01-15T11:49:28.984Z,3.80
2019-01-15T11:54:35.493Z,3.20
2019-01-15T11:59:41.954Z,2.10
2019-01-15T12:04:49.935Z,2.37
2019-01-15T12:09:57.982Z,3.07
2019-01-15T12:15:25.292Z,2.30
2019-01-15T12:20:39.544Z,3.47
2019-01-15T12:25:50.278Z,4.17
2019-01-15T12:31:07.658Z,3.83
2019-01-15T12:41:26.052Z,4.07
2019-01-15T12:46:48.665Z,3.03
2019-01-15T12:57:22.955Z,5.45
2019-01-15T13:02:33.659Z,7.03
2019-01-15T13:07:50.692Z,4.85
2019-01-15T13:13:04.765Z,3.03
2019-01-15T13:18:15.634Z,4.73
2019-01-15T13:23:29.497Z,6.53
2019-01-15T13:28:40.481Z,2.90
2019-01-15T13:33:48.708Z,3.53
2019-01-15T13:39:12.274Z,3.90
2019-01-15T13:44:18.319Z,2.70
2019-01-15T13:49:26.377Z,3.67
2019-01-15T13:54:37.278Z,3.75
2019-01-15T14:00:00.449Z,3.37
2019-01-15T14:05:15.629Z,3.10
2019-01-15T14:15:48.924Z,3.87
2019-01-15T14:20:58.907Z,5.60
2019-01-15T14:26:10.747Z,6.90
2019-01-15T14:31:24.699Z,6.20
2019-01-15T14:36:51.667Z,5.15
2019-01-15T14:42:02.457Z,4.13
2019-01-15T14:47:27.260Z,4.40
2019-01-15T14:52:39.685Z,5.50
2019-01-15T15:03:13.755Z,4.17
2019-01-15T15:08:38.350Z,3.55
2019-01-15T15:14:02.669Z,4.57
2019-01-15T15:29:41.942Z,6.10
2019-01-15T15:34:49.956Z,6.03
2019-01-15T15:40:07.320Z,6.10
2019-01-15T15:45:22.709Z,4.83
2019-01-15T15:55:38.336Z,6.77
2019-01-15T16:00:53.739Z,4.70
2019-01-15T16:11:28.110Z,7.72
2019-01-15T16:16:35.293Z,6.20
2019-01-15T16:22:01.926Z,6.17
2019-01-15T16:32:20.574Z,7.07
2019-01-15T16:37:46.996Z,6.60
2019-01-15T16:42:58.036Z,5.43
2019-01-15T16:48:19.327Z,7.87
2019-01-15T16:53:43.470Z,4.90
2019-01-15T16:59:07.614Z,6.90
2019-01-15T17:04:30.608Z,6.03
2019-01-15T17:09:44.741Z,6.03
2019-01-15T17:20:03.046Z,20.13
2019-01-15T17:30:21.987Z,7.13
2019-01-15T17:35:29.990Z,7.07
2019-01-15T18:18:05.443Z,3.90
2019-01-15T18:23:16.538Z,9.60
2019-01-15T18:28:36.979Z,6.43
2019-01-15T18:38:55.446Z,5.77
2019-01-15T18:44:18.639Z,6.67
2019-01-15T18:49:24.810Z,6.70
2019-01-15T18:54:32.714Z,6.70
2019-01-15T18:59:48.278Z,9.00
2019-01-15T19:05:05.438Z,5.00
2019-01-15T19:10:29.671Z,5.92
2019-01-15T19:21:11.071Z,9.50
2019-01-15T19:26:35.066Z,10.17
2019-01-15T19:31:43.001Z,8.50
2019-01-15T19:36:51.772Z,6.83
2019-01-15T19:47:24.553Z,12.00
2019-01-15T19:57:42.381Z,10.83
2019-01-15T20:02:59.660Z,8.50
2019-01-15T20:13:21.275Z,5.40
2019-01-15T20:18:29.350Z,5.93
2019-01-15T20:23:53.744Z,6.73
2019-01-15T20:40:18.600Z,6.13
2019-01-15T20:45:28.307Z,9.93
2019-01-15T20:50:50.313Z,5.47
2019-01-15T20:55:57.997Z,6.60
2019-01-15T21:01:22.556Z,5.53
2019-01-15T21:06:46.280Z,4.17
2019-01-15T21:17:50.273Z,3.73
2019-01-15T21:28:42.493Z,6.10
2019-01-15T21:34:04.322Z,5.13
2019-01-15T21:39:21.621Z,11.50
2019-01-15T21:44:37.279Z,7.80
2019-01-15T21:49:52.484Z,6.60
2019-01-15T21:55:14.355Z,8.77
2019-01-15T22:00:30.274Z,5.17
2019-01-15T22:11:33.975Z,6.67
2019-01-15T22:56:16.357Z,6.67
2019-01-15T23:01:27.444Z,7.20
2019-01-15T23:06:38.333Z,8.07
2019-01-15T23:11:47.580Z,7.57
2019-01-15T23:16:56.622Z,8.80
2019-01-15T23:22:08.992Z,6.13
2019-01-15T23:27:18.012Z,7.97
2019-01-15T23:32:44.983Z,6.57
2019-01-15T23:38:03.408Z,8.73
2019-01-15T23:43:13.961Z,6.35
2019-01-15T23:48:32.448Z,6.70
2019-01-15T23:53:40.676Z,9.13
2019-01-15T23:58:54.752Z,7.70
